Time;durP1;ratioP1;P1;durP2;ratioP2;P2;SDS_P1;SDS_P2;PMS_P1;PMS_P2;Temp;Humidity;BMP_temperature;BMP_pressure;BME280_temperature;BME280_humidity;BME280_pressure;Samples;Min_cycle;Max_cycle;Signal;HPM_P1;HPM_P2
2022/11/06 00:01:25;;;;;;;4.90;1.27;;;;;;;10.13;87.74;101453.59;5036639;27;96724;-30
2022/11/06 00:03:51;;;;;;;1.85;1.17;;;;;;;10.12;88.11;101465.38;5036336;27;97989;-31
2022/11/06 00:09:04;;;;;;;4.78;1.40;;;;;;;10.15;88.06;101451.72;5037013;28;96627;-30
2022/11/06 00:11:30;;;;;;;5.28;1.90;;;;;;;10.15;87.71;101439.97;5052341;27;96836;-31
2022/11/06 00:13:55;;;;;;;3.03;1.08;;;;;;;10.15;87.78;101440.88;5051459;27;101274;-31
2022/11/06 00:16:21;;;;;;;1.75;1.08;;;;;;;10.15;87.76;101434.56;5036029;27;97336;-31
2022/11/06 00:18:47;;;;;;;3.75;1.40;;;;;;;10.16;87.79;101436.34;5035551;27;96735;-31
2022/11/06 00:21:24;;;;;;;6.72;1.02;;;;;;;10.17;87.84;101435.38;5051763;27;96838;-31
2022/11/06 00:23:50;;;;;;;3.63;1.27;;;;;;;10.12;87.96;101432.88;5051547;27;101123;-31
2022/11/06 00:26:18;;;;;;;4.00;0.77;;;;;;;10.12;88.12;101426.59;5051260;27;101009;-30
2022/11/06 00:28:44;;;;;;;2.78;1.40;;;;;;;10.14;88.21;101428.28;5034745;28;96708;-31
2022/11/06 00:31:13;;;;;;;2.67;1.77;;;;;;;10.17;88.33;101422.69;5036126;28;96693;-30
2022/11/06 00:33:38;;;;;;;4.53;1.30;;;;;;;10.17;88.18;101417.28;5033660;27;100960;-32
2022/11/06 00:36:06;;;;;;;3.33;1.58;;;;;;;10.17;88.03;101424.53;5051188;27;101351;-31
2022/11/06 00:38:32;;;;;;;3.20;1.27;;;;;;;10.18;88.33;101429.00;5034379;28;96563;-32
2022/11/06 00:41:02;;;;;;;2.55;1.40;;;;;;;10.20;88.10;101427.09;5036086;27;96849;-32
2022/11/06 00:43:27;;;;;;;2.22;1.05;;;;;;;10.18;88.28;101426.31;5035153;27;96659;-31
2022/11/06 00:45:52;;;;;;;2.83;1.48;;;;;;;10.17;88.25;101420.00;5035257;27;98732;-31
2022/11/06 00:48:17;;;;;;;2.60;1.40;;;;;;;10.18;88.22;101427.19;5035763;28;96579;-31
2022/11/06 00:50:43;;;;;;;5.72;1.80;;;;;;;10.21;88.14;101439.69;5035517;27;96786;-30
2022/11/06 00:53:08;;;;;;;2.80;1.52;;;;;;;10.23;88.24;101428.78;5035301;28;102838;-31
2022/11/06 00:55:33;;;;;;;4.88;1.02;;;;;;;10.21;88.25;101436.97;5034511;28;100109;-31
2022/11/06 00:57:59;;;;;;;6.53;1.15;;;;;;;10.23;88.31;101426.94;5035772;27;96716;-31
2022/11/06 01:00:24;;;;;;;2.63;1.38;;;;;;;10.24;88.35;101428.69;5035930;27;96459;-31
2022/11/06 01:02:49;;;;;;;1.23;0.75;;;;;;;10.24;88.28;101427.81;5035445;27;96829;-31
2022/11/06 01:05:15;;;;;;;2.40;1.10;;;;;;;10.23;88.41;101417.97;5035278;27;97764;-31
2022/11/06 01:07:40;;;;;;;1.95;1.25;;;;;;;10.25;88.23;101424.13;5034831;27;96511;-31
2022/11/06 01:10:06;;;;;;;1.30;1.02;;;;;;;10.24;88.41;101422.41;5035515;27;96954;-33
2022/11/06 01:12:33;;;;;;;1.85;1.10;;;;;;;10.26;88.54;101431.31;5050507;27;102060;-31
2022/11/06 01:14:58;;;;;;;1.98;1.17;;;;;;;10.22;88.67;101427.88;5050295;27;100838;-31
2022/11/06 01:17:23;;;;;;;3.33;1.40;;;;;;;10.24;88.60;101431.41;5034935;27;96839;-30
2022/11/06 01:19:49;;;;;;;1.08;0.90;;;;;;;10.21;88.84;101415.31;5035105;27;96645;-30
2022/11/06 01:22:14;;;;;;;3.55;1.08;;;;;;;10.24;88.80;101419.69;5034974;28;97505;-30
2022/11/06 01:24:40;;;;;;;1.60;0.88;;;;;;;10.24;88.76;101411.56;5035322;27;97775;-30
2022/11/06 01:27:05;;;;;;;6.57;1.52;;;;;;;10.26;88.86;101404.25;5035279;28;96465;-32
2022/11/06 01:29:31;;;;;;;1.83;1.20;;;;;;;10.22;89.00;101400.81;5035427;27;96773;-32
2022/11/06 01:31:56;;;;;;;1.75;0.88;;;;;;;10.24;88.57;101408.88;5034513;27;97895;-31
2022/11/06 01:34:21;;;;;;;1.20;1.00;;;;;;;10.25;88.84;101397.06;5034514;27;99246;-32
2022/11/06 01:36:47;;;;;;;1.60;0.95;;;;;;;10.26;88.84;101406.97;5035268;27;96455;-31
2022/11/06 01:39:13;;;;;;;3.47;1.45;;;;;;;10.26;88.70;101407.81;5035266;27;96839;-31
2022/11/06 01:41:46;;;;;;;1.95;0.88;;;;;;;10.27;88.69;101406.84;5050312;27;101596;-31
2022/11/06 01:44:39;;;;;;;2.47;1.20;;;;;;;10.28;88.85;101414.06;5034288;27;99409;-31
2022/11/06 01:47:18;;;;;;;3.10;1.52;;;;;;;10.23;89.40;101401.72;5034758;28;96752;-31
2022/11/06 01:49:44;;;;;;;1.48;0.88;;;;;;;10.27;89.18;101395.16;5034047;28;96746;-31
2022/11/06 01:52:11;;;;;;;4.45;1.60;;;;;;;10.24;89.21;101389.91;5050022;27;100711;-30
2022/11/06 01:54:39;;;;;;;4.60;1.35;;;;;;;10.19;89.33;101380.19;5050056;27;101096;-31
2022/11/06 01:57:05;;;;;;;5.18;0.95;;;;;;;10.20;89.95;101384.66;5049861;27;96673;-32
2022/11/06 01:59:34;;;;;;;2.17;0.93;;;;;;;10.20;89.83;101384.66;5049953;27;96986;-32
2022/11/06 02:02:00;;;;;;;4.25;1.20;;;;;;;10.20;90.03;101398.19;5050069;27;101464;-32
2022/11/06 02:04:30;;;;;;;2.00;1.20;;;;;;;10.18;90.02;101394.69;5034457;27;97689;-31
2022/11/06 02:06:58;;;;;;;1.63;1.02;;;;;;;10.21;90.02;101394.53;5033264;28;96567;-31
2022/11/06 02:09:24;;;;;;;2.63;1.20;;;;;;;10.21;90.27;101393.66;5050274;27;96925;-32
2022/11/06 02:11:54;;;;;;;2.90;0.98;;;;;;;10.19;90.35;101371.19;5034334;27;97383;-31
2022/11/06 02:14:33;;;;;;;1.80;1.00;;;;;;;10.19;90.38;101382.91;5050156;27;100729;-32
2022/11/06 02:17:10;;;;;;;3.33;1.20;;;;;;;10.25;89.93;101375.41;5032880;28;96643;-32
2022/11/06 02:20:02;;;;;;;5.00;1.10;;;;;;;10.25;90.21;101381.72;5050212;27;96778;-31
2022/11/06 02:22:36;;;;;;;2.58;1.08;;;;;;;10.25;90.25;101376.31;5033581;27;97405;-31
2022/11/06 02:25:14;;;;;;;1.95;1.13;;;;;;;10.26;90.16;101371.75;5034289;28;97973;-31
2022/11/06 02:27:50;;;;;;;3.70;1.10;;;;;;;10.27;89.99;101371.66;5034392;27;96708;-31
2022/11/06 02:30:17;;;;;;;2.08;0.95;;;;;;;10.30;89.76;101373.41;5034674;27;96551;-30
2022/11/06 02:33:09;;;;;;;3.33;1.17;;;;;;;10.30;89.66;101367.97;5032483;28;101004;-31
2022/11/06 02:35:46;;;;;;;1.73;1.25;;;;;;;10.30;89.77;101374.25;5034411;27;98072;-32
2022/11/06 02:38:25;;;;;;;1.35;1.02;;;;;;;10.29;89.83;101371.63;5034325;28;97066;-31
2022/11/06 02:40:57;;;;;;;2.20;1.20;;;;;;;10.31;89.48;101376.00;5034908;27;96549;-32
2022/11/06 02:43:31;;;;;;;3.60;1.27;;;;;;;10.33;89.63;101368.69;5032482;28;101284;-31
2022/11/06 02:46:04;;;;;;;5.85;1.27;;;;;;;10.33;89.60;101365.09;5032369;28;101159;-31
2022/11/06 02:48:36;;;;;;;1.38;0.98;;;;;;;10.34;89.59;101354.16;5033893;27;96534;-31
2022/11/06 02:51:03;;;;;;;;;;;;;;;10.33;89.88;101352.44;5033428;28;96710;-32
2022/11/06 02:53:29;;;;;;;1.27;0.80;;;;;;;10.32;89.88;101356.13;5033850;28;97528;-32
2022/11/06 02:56:01;;;;;;;4.78;0.82;;;;;;;10.33;89.73;101359.69;5032376;27;101081;-31
2022/11/06 02:58:55;;;;;;;4.82;0.90;;;;;;;10.36;89.83;101340.56;5036216;27;96871;-31
2022/11/06 03:01:38;;;;;;;4.07;1.30;;;;;;;10.34;89.96;101350.59;5006201;28;96799;-31
2022/11/06 03:04:11;;;;;;;3.88;1.45;;;;;;;10.36;89.48;101356.81;5036990;27;97923;-31
2022/11/06 03:06:41;;;;;;;3.00;1.13;;;;;;;10.39;89.74;101357.53;5052933;27;101102;-31
2022/11/06 03:09:13;;;;;;;2.38;1.15;;;;;;;10.38;89.37;101355.78;5053014;27;96650;-31
2022/11/06 03:11:38;;;;;;;3.80;1.02;;;;;;;10.36;89.60;101348.69;5036140;28;96712;-31
2022/11/06 03:14:20;;;;;;;2.05;1.10;;;;;;;10.42;89.64;101351.09;5036646;28;97967;-31
2022/11/06 03:16:57;;;;;;;2.00;1.13;;;;;;;10.40;89.76;101332.19;5052392;27;101091;-31
2022/11/06 03:19:39;;;;;;;4.75;1.13;;;;;;;10.39;89.68;101333.16;5052473;27;96921;-31
2022/11/06 03:22:18;;;;;;;2.30;0.85;;;;;;;10.40;89.86;101328.63;5035929;28;96723;-33
2022/11/06 03:24:49;;;;;;;4.15;0.80;;;;;;;10.40;90.22;101328.63;5052300;27;101308;-31
2022/11/06 03:27:19;;;;;;;3.13;1.00;;;;;;;10.37;90.50;101324.25;5052240;27;100685;-31
2022/11/06 03:29:48;;;;;;;3.45;1.30;;;;;;;10.36;90.77;101327.03;5052701;27;96580;-31
2022/11/06 03:32:25;;;;;;;4.22;1.42;;;;;;;10.28;91.15;101308.47;5052913;27;96889;-32
2022/11/06 03:35:14;;;;;;;1.45;0.88;;;;;;;10.31;91.49;101304.72;5035413;28;100869;-30
2022/11/06 03:37:47;;;;;;;2.38;1.20;;;;;;;10.28;91.57;101307.59;5036898;27;97835;-31
2022/11/06 03:40:18;;;;;;;3.15;1.67;;;;;;;10.29;91.50;101303.94;5052120;27;96739;-31
2022/11/06 03:42:45;;;;;;;2.70;1.58;;;;;;;10.30;91.31;101312.00;5035520;28;96752;-31
2022/11/06 03:45:19;;;;;;;2.13;1.30;;;;;;;10.30;91.18;101300.28;5035115;28;100845;-31
2022/11/06 03:47:51;;;;;;;2.22;1.25;;;;;;;10.33;91.13;101297.41;5052081;27;100944;-31
2022/11/06 03:50:38;;;;;;;4.15;1.50;;;;;;;10.31;91.13;101307.44;5035538;28;96655;-31
2022/11/06 03:53:09;;;;;;;3.22;1.17;;;;;;;10.31;90.94;101302.91;5036884;27;96553;-31
2022/11/06 03:55:41;;;;;;;1.13;0.82;;;;;;;10.35;90.84;101295.50;5035095;28;101300;-30
2022/11/06 03:58:10;;;;;;;;;;;;;;;10.36;91.02;101289.13;5052146;27;100035;-30
2022/11/06 04:00:39;;;;;;;1.13;0.60;;;;;;;10.36;91.15;101294.53;5035348;28;96638;-32
2022/11/06 04:03:12;;;;;;;1.60;1.10;;;;;;;10.36;90.96;101278.28;5036434;27;96878;-30
2022/11/06 04:05:46;;;;;;;5.03;1.30;;;;;;;10.39;90.79;101284.41;5051270;27;100843;-31
2022/11/06 04:13:59;;;;;;;2.33;0.75;;;;;;;10.39;91.25;101268.19;5036963;28;96427;-30
2022/11/06 04:16:30;;;;;;;2.58;1.45;;;;;;;10.39;91.31;101267.28;5035554;27;99316;-31
2022/11/06 04:18:56;;;;;;;2.97;1.73;;;;;;;10.42;91.26;101267.13;5051315;27;100957;-33
2022/11/06 04:21:56;;;;;;;3.95;1.52;;;;;;;10.40;91.66;101264.50;5036564;27;97054;-31
2022/11/06 04:27:42;;;;;;;2.88;1.13;;;;;;;10.44;91.67;101256.19;5036028;28;97116;-32
2022/11/06 04:30:13;;;;;;;6.22;1.17;;;;;;;10.43;91.37;101252.63;5036107;27;97860;-31
2022/11/06 04:33:00;;;;;;;2.43;1.50;;;;;;;10.44;91.39;101262.50;5035349;28;96609;-31
2022/11/06 04:35:32;;;;;;;2.45;1.30;;;;;;;10.44;91.28;101248.06;5051605;27;96672;-32
2022/11/06 04:38:03;;;;;;;1.17;0.93;;;;;;;10.44;91.48;101248.06;5035706;27;97333;-31
2022/11/06 04:40:49;;;;;;;1.48;1.00;;;;;;;10.45;91.16;101245.28;5051366;27;101008;-31
2022/11/06 04:43:32;;;;;;;5.50;1.10;;;;;;;10.44;91.62;101230.00;5051470;27;96590;-31
2022/11/06 04:46:01;;;;;;;3.65;0.98;;;;;;;10.42;91.23;101237.34;5034590;28;96743;-32
2022/11/06 04:48:28;;;;;;;0.90;0.75;;;;;;;10.42;91.75;101242.75;5034095;28;101077;-31
2022/11/06 04:50:58;;;;;;;2.20;1.17;;;;;;;10.43;91.60;101233.66;5034480;28;100793;-31
2022/11/06 04:53:25;;;;;;;2.22;1.10;;;;;;;10.41;92.36;101230.16;5034342;28;96552;-31
2022/11/06 04:55:52;;;;;;;2.00;0.82;;;;;;;10.42;92.06;101237.34;5051269;27;96524;-31
2022/11/06 04:58:18;;;;;;;4.88;1.65;;;;;;;10.41;92.36;101228.31;5050142;27;100635;-31
2022/11/06 05:00:45;;;;;;;3.45;1.38;;;;;;;10.39;92.84;101237.50;5035385;28;97305;-30
2022/11/06 05:03:11;;;;;;;1.00;0.88;;;;;;;10.41;92.69;101227.44;5051049;27;96521;-31
2022/11/06 05:05:36;;;;;;;2.40;1.45;;;;;;;10.41;92.15;101232.88;5035619;27;96867;-31
2022/11/06 05:08:01;;;;;;;1.75;0.98;;;;;;;10.36;93.44;101216.00;5035201;27;98017;-30
2022/11/06 05:10:27;;;;;;;1.73;1.17;;;;;;;10.39;93.06;101221.25;5035593;27;97353;-30
2022/11/06 05:12:52;;;;;;;2.10;1.25;;;;;;;10.38;93.62;101224.91;5035276;28;96838;-30
2022/11/06 05:15:18;;;;;;;3.50;1.05;;;;;;;10.38;93.17;101222.22;5035650;28;96565;-32
2022/11/06 05:17:43;;;;;;;2.40;1.23;;;;;;;10.35;93.76;101217.84;5034577;28;99328;-31
2022/11/06 05:20:08;;;;;;;2.65;1.30;;;;;;;10.34;93.73;101213.38;5034956;27;97770;-30
2022/11/06 05:22:57;;;;;;;3.55;1.40;;;;;;;10.34;93.70;101201.66;5034664;27;96470;-31
2022/11/06 05:25:33;;;;;;;1.73;0.57;;;;;;;10.34;93.87;101216.06;5035475;28;96499;-32
2022/11/06 05:28:00;;;;;;;2.92;0.88;;;;;;;10.32;93.81;101199.06;5034884;27;98001;-32
2022/11/06 05:30:26;;;;;;;1.50;0.90;;;;;;;10.29;93.66;101196.50;5034820;27;99052;-31
2022/11/06 05:32:52;;;;;;;4.57;1.05;;;;;;;10.30;93.72;101192.00;5050677;27;96683;-31
2022/11/06 05:35:18;;;;;;;1.60;0.98;;;;;;;10.30;94.10;101190.16;5035030;27;96805;-33
2022/11/06 05:37:44;;;;;;;1.67;0.88;;;;;;;10.26;94.25;101188.53;5034881;27;97406;-32
2022/11/06 05:40:10;;;;;;;4.00;1.40;;;;;;;10.26;93.97;101193.06;5034941;27;109663;-31
2022/11/06 05:42:40;;;;;;;1.45;0.90;;;;;;;10.24;94.64;101192.28;5035077;27;96653;-31
2022/11/06 05:45:06;;;;;;;1.52;0.95;;;;;;;10.21;94.91;101174.38;5050674;27;96900;-30
2022/11/06 05:47:33;;;;;;;1.88;0.82;;;;;;;10.17;95.60;101173.66;5049586;27;102365;-32
2022/11/06 05:49:58;;;;;;;1.08;0.70;;;;;;;10.15;95.14;101170.19;5034409;28;99533;-31
2022/11/06 05:52:23;;;;;;;2.20;0.88;;;;;;;10.12;95.71;101167.63;5034765;27;96464;-31
2022/11/06 05:54:49;;;;;;;1.17;0.75;;;;;;;10.11;95.86;101156.91;5034814;27;96770;-31
2022/11/06 05:57:14;;;;;;;2.55;0.88;;;;;;;10.08;95.97;101165.16;5034753;27;97474;-31
2022/11/06 05:59:40;;;;;;;1.67;0.73;;;;;;;10.07;96.29;101160.72;5034294;27;98058;-31
2022/11/06 06:02:06;;;;;;;2.20;1.27;;;;;;;10.08;96.28;101157.03;5034752;27;96470;-32
2022/11/06 06:04:31;;;;;;;0.88;0.70;;;;;;;10.09;96.52;101159.66;5035346;27;96741;-31
2022/11/06 06:06:57;;;;;;;0.63;0.60;;;;;;;10.08;96.56;101162.44;5034390;27;97969;-31
2022/11/06 06:09:22;;;;;;;1.95;0.98;;;;;;;10.08;96.60;101157.94;5034586;27;98195;-30
2022/11/06 06:11:52;;;;;;;1.88;1.00;;;;;;;10.08;96.30;101157.94;5033806;28;98884;-31
2022/11/06 06:14:21;;;;;;;0.82;0.65;;;;;;;10.10;96.11;101160.53;5033367;28;96811;-31
2022/11/06 06:16:46;;;;;;;2.20;1.30;;;;;;;10.10;95.99;101156.00;5032952;28;101019;-32
2022/11/06 06:19:12;;;;;;;2.17;0.82;;;;;;;10.11;96.07;101157.75;5033482;28;110903;-31
2022/11/06 06:21:37;;;;;;;1.60;1.00;;;;;;;10.11;96.04;101152.34;5050091;27;96727;-31
2022/11/06 06:24:04;;;;;;;6.45;1.00;;;;;;;10.13;95.63;101161.25;5034262;27;96814;-31
2022/11/06 06:26:29;;;;;;;4.68;1.15;;;;;;;10.16;95.35;101171.03;5032699;28;102383;-31
2022/11/06 06:28:55;;;;;;;3.00;0.98;;;;;;;10.15;95.79;101170.19;5034526;28;97405;-30
2022/11/06 06:31:20;;;;;;;1.45;0.80;;;;;;;10.15;96.01;101171.97;5035156;27;96533;-31
2022/11/06 06:33:45;;;;;;;2.50;0.85;;;;;;;10.12;95.67;101158.63;5038013;27;96859;-32
2022/11/06 06:36:11;;;;;;;2.42;1.05;;;;;;;10.15;95.72;101159.34;5052901;27;100613;-31
2022/11/06 06:38:36;;;;;;;2.67;1.15;;;;;;;10.15;95.37;101135.00;5037333;28;98024;-31
2022/11/06 06:41:07;;;;;;;2.80;0.90;;;;;;;10.15;95.16;101137.69;5038042;27;96474;-30
2022/11/06 06:43:33;;;;;;;1.90;1.05;;;;;;;10.18;95.04;101136.66;5053455;27;96828;-32
2022/11/06 06:46:00;;;;;;;0.68;0.50;;;;;;;10.19;94.99;101125.72;5053152;27;98929;-30
2022/11/06 06:48:26;;;;;;;1.25;0.65;;;;;;;10.20;94.81;101126.56;5036015;28;100970;-31
2022/11/06 06:50:55;;;;;;;1.38;0.70;;;;;;;10.19;94.17;101116.72;5037916;28;96679;-30
2022/11/06 06:53:20;;;;;;;1.55;0.88;;;;;;;10.24;94.31;101122.75;5053544;27;97029;-30
2022/11/06 06:55:45;;;;;;;1.15;0.82;;;;;;;10.26;93.78;101123.53;5037444;27;99499;-31
2022/11/06 06:58:11;;;;;;;1.58;0.75;;;;;;;10.31;94.02;101128.75;5037260;27;97758;-30
2022/11/06 07:00:36;;;;;;;3.17;0.88;;;;;;;10.31;93.87;101120.63;5037320;27;96738;-31
2022/11/06 07:03:01;;;;;;;1.25;0.50;;;;;;;10.34;93.46;101120.44;5035937;28;96887;-31
2022/11/06 07:05:27;;;;;;;2.25;0.95;;;;;;;10.36;93.15;101118.53;5037398;27;97834;-31
2022/11/06 07:07:52;;;;;;;3.25;0.82;;;;;;;10.38;93.04;101116.59;5037016;27;97781;-31
2022/11/06 07:10:17;;;;;;;3.55;1.08;;;;;;;10.39;92.68;101119.22;5037338;28;96602;-31
2022/11/06 07:12:43;;;;;;;1.20;0.68;;;;;;;10.44;92.56;101115.38;5037653;27;96733;-32
2022/11/06 07:15:09;;;;;;;1.80;1.08;;;;;;;10.46;92.40;101108.03;5037001;28;97921;-31
2022/11/06 07:17:34;;;;;;;1.48;0.70;;;;;;;10.50;92.41;101115.03;5035329;28;101780;-31
2022/11/06 07:19:59;;;;;;;1.10;0.75;;;;;;;10.50;92.33;101118.59;5037568;27;96754;-31
2022/11/06 07:22:26;;;;;;;2.88;1.60;;;;;;;10.51;92.36;101122.19;5037115;27;96850;-32
2022/11/06 07:24:51;;;;;;;0.73;0.52;;;;;;;10.51;92.13;101111.34;5051971;27;100937;-31
2022/11/06 07:27:16;;;;;;;1.13;0.70;;;;;;;10.53;91.91;101121.13;5036938;27;97231;-31
2022/11/06 07:29:42;;;;;;;2.78;1.00;;;;;;;10.54;91.80;101119.31;5036905;28;96627;-30
2022/11/06 07:32:08;;;;;;;2.40;0.88;;;;;;;10.52;91.61;101113.97;5037196;27;96846;-31
2022/11/06 07:34:33;;;;;;;3.15;0.88;;;;;;;10.53;91.34;101115.72;5035289;28;101151;-31
2022/11/06 07:36:58;;;;;;;0.98;0.45;;;;;;;10.55;91.33;101111.09;5036311;28;99340;-30
2022/11/06 07:39:24;;;;;;;0.65;0.55;;;;;;;10.56;91.27;101103.88;5037173;27;96516;-31
2022/11/06 07:41:49;;;;;;;2.67;0.98;;;;;;;10.59;91.26;101104.53;5037476;27;96740;-31
2022/11/06 07:44:14;;;;;;;2.42;0.95;;;;;;;10.61;91.02;101099.03;5035321;27;106150;-31
2022/11/06 07:46:40;;;;;;;3.03;1.20;;;;;;;10.66;90.95;101096.94;5036197;27;103000;-32
2022/11/06 07:49:05;;;;;;;2.00;0.82;;;;;;;10.69;90.42;101096.75;5036522;27;96627;-31
2022/11/06 07:51:30;;;;;;;3.45;1.10;;;;;;;10.73;90.27;101090.19;5036905;28;96785;-31
2022/11/06 07:53:56;;;;;;;1.10;0.75;;;;;;;10.75;90.75;101087.38;5036379;27;97472;-30
2022/11/06 07:56:21;;;;;;;0.90;0.75;;;;;;;10.79;90.40;101094.38;5035885;27;99100;-31
2022/11/06 07:58:46;;;;;;;2.05;1.00;;;;;;;10.86;90.13;101097.59;5036342;27;97039;-30
2022/11/06 08:01:16;;;;;;;2.15;0.77;;;;;;;10.83;89.79;101088.69;5036463;28;96831;-31
2022/11/06 08:03:42;;;;;;;1.63;0.80;;;;;;;10.83;90.00;101091.41;5051735;27;101181;-31
2022/11/06 08:06:08;;;;;;;2.50;1.05;;;;;;;10.84;90.17;101097.69;5036541;28;97879;-31
2022/11/06 08:08:34;;;;;;;2.97;1.00;;;;;;;10.87;90.22;101102.94;5035020;28;96583;-30
2022/11/06 08:11:04;;;;;;;1.08;0.70;;;;;;;10.88;90.67;101093.84;5036668;28;96761;-31
2022/11/06 08:13:29;;;;;;;1.13;0.73;;;;;;;10.92;90.34;101099.97;5034309;28;101159;-31
2022/11/06 08:15:55;;;;;;;2.22;1.13;;;;;;;10.90;90.37;101101.91;5034725;27;98686;-30
2022/11/06 08:18:20;;;;;;;2.25;0.93;;;;;;;10.84;89.62;101095.88;5048869;27;97208;-31
2022/11/06 08:20:45;;;;;;;1.45;0.57;;;;;;;10.78;89.86;101088.09;5034102;27;97207;-31
2022/11/06 08:23:12;;;;;;;2.65;0.65;;;;;;;10.76;90.40;101094.56;5034869;27;99590;-32
2022/11/06 08:25:39;;;;;;;1.98;1.05;;;;;;;10.72;90.56;101087.56;5050413;27;100953;-31
2022/11/06 08:28:04;;;;;;;1.73;0.50;;;;;;;10.70;91.02;101089.50;5033742;28;96710;-32
2022/11/06 08:30:30;;;;;;;2.53;0.85;;;;;;;10.65;91.56;101086.19;5035827;27;96762;-31
2022/11/06 08:33:05;;;;;;;4.43;0.70;;;;;;;10.56;91.92;101083.06;5051559;27;100491;-31
2022/11/06 08:35:32;;;;;;;0.75;0.55;;;;;;;10.51;92.18;101087.88;5051159;27;101078;-32
2022/11/06 08:37:58;;;;;;;1.17;0.55;;;;;;;10.46;92.17;101067.41;5034164;28;96582;-32
2022/11/06 08:40:23;;;;;;;0.85;0.65;;;;;;;10.48;92.72;101082.63;5036068;27;96633;-31
2022/11/06 08:42:49;;;;;;;2.38;0.93;;;;;;;10.45;92.61;101080.09;5035635;27;97856;-31
2022/11/06 08:45:14;;;;;;;1.50;0.88;;;;;;;10.49;92.63;101073.53;5035459;28;111548;-31
2022/11/06 08:47:39;;;;;;;1.00;0.63;;;;;;;10.51;92.40;101066.22;5036000;27;96615;-30
2022/11/06 08:50:05;;;;;;;4.10;0.88;;;;;;;10.52;92.41;101057.09;5036141;27;96725;-31
2022/11/06 08:52:30;;;;;;;2.00;0.57;;;;;;;10.59;92.69;101054.91;5033930;28;102082;-32
2022/11/06 08:54:56;;;;;;;3.97;0.70;;;;;;;10.65;92.41;101049.13;5035391;27;97930;-30
2022/11/06 08:57:21;;;;;;;0.98;0.60;;;;;;;10.70;92.46;101040.72;5035751;28;96599;-32
2022/11/06 08:59:46;;;;;;;1.83;0.57;;;;;;;10.73;92.17;101046.00;5035693;27;96794;-31
2022/11/06 09:02:13;;;;;;;0.68;0.47;;;;;;;10.75;91.53;101039.50;5033796;28;97968;-35
2022/11/06 09:04:39;;;;;;;0.82;0.70;;;;;;;10.82;91.75;101043.59;5050843;27;101227;-31
2022/11/06 09:07:04;;;;;;;4.47;0.73;;;;;;;10.84;91.42;101032.66;5033984;28;96690;-31
2022/11/06 09:09:30;;;;;;;0.50;0.50;;;;;;;10.90;90.98;101036.84;5035551;27;98257;-31
2022/11/06 09:12:00;;;;;;;1.00;0.73;;;;;;;10.92;90.89;101027.66;5035011;27;99829;-31
2022/11/06 09:14:26;;;;;;;1.20;0.77;;;;;;;10.93;90.67;101026.69;5050717;27;101328;-30
2022/11/06 09:16:52;;;;;;;4.03;1.30;;;;;;;10.98;90.86;101027.28;5033762;28;96513;-31
2022/11/06 09:19:18;;;;;;;1.08;0.70;;;;;;;10.95;91.07;101019.34;5034064;28;96894;-30
2022/11/06 09:21:43;;;;;;;1.20;0.65;;;;;;;10.97;91.27;101022.84;5035202;27;97888;-31
2022/11/06 09:24:09;;;;;;;1.92;1.00;;;;;;;10.98;91.10;101021.00;5035119;27;97361;-31
2022/11/06 09:26:34;;;;;;;2.60;0.95;;;;;;;10.99;91.41;101018.19;5050316;27;96632;-31
2022/11/06 09:29:00;;;;;;;1.80;0.90;;;;;;;10.98;91.27;101027.28;5035460;27;96803;-31
2022/11/06 09:31:25;;;;;;;1.15;0.55;;;;;;;11.02;91.17;101018.00;5035198;27;97311;-30
2022/11/06 09:33:50;;;;;;;1.80;0.93;;;;;;;11.04;90.45;101017.91;5035199;27;97366;-31
2022/11/06 09:36:16;;;;;;;1.90;0.75;;;;;;;11.09;90.62;101012.22;5035120;27;96569;-30
2022/11/06 09:38:42;;;;;;;1.95;0.73;;;;;;;11.13;90.48;101016.47;5035031;27;96863;-30
2022/11/06 09:41:22;;;;;;;3.80;0.70;;;;;;;11.15;90.20;101018.13;5034631;28;99278;-31
2022/11/06 09:44:16;;;;;;;2.22;0.77;;;;;;;11.14;89.97;101001.97;5033852;28;100502;-31
2022/11/06 09:46:44;;;;;;;2.05;0.85;;;;;;;11.20;89.97;101012.41;5033503;28;96698;-32
2022/11/06 09:49:32;;;;;;;2.17;0.70;;;;;;;11.25;89.76;101004.88;5050567;27;96842;-31
2022/11/06 09:52:04;;;;;;;5.15;0.80;;;;;;;11.25;89.41;100997.63;5049643;27;100992;-31
2022/11/06 09:54:47;;;;;;;1.10;0.63;;;;;;;11.31;89.63;100992.78;5032988;28;100771;-32
2022/11/06 09:57:20;;;;;;;2.03;0.75;;;;;;;11.35;89.22;100991.63;5050651;27;96576;-32
2022/11/06 09:59:47;;;;;;;0.90;0.70;;;;;;;11.36;89.09;100986.09;5050306;27;96893;-31
2022/11/06 10:02:30;;;;;;;1.67;0.40;;;;;;;11.43;88.94;100992.00;5034643;28;97577;-31
2022/11/06 10:05:16;;;;;;;0.98;0.60;;;;;;;11.44;89.13;100991.91;5034318;28;99578;-31
2022/11/06 10:07:44;;;;;;;2.30;0.70;;;;;;;11.48;89.02;100987.16;5053162;27;96622;-31
2022/11/06 10:10:16;;;;;;;1.27;0.80;;;;;;;11.49;88.86;100988.91;5037429;28;96985;-31
2022/11/06 10:13:08;;;;;;;1.30;0.63;;;;;;;11.54;88.72;100994.06;5036702;28;100134;-31
2022/11/06 10:15:39;;;;;;;3.15;0.85;;;;;;;11.57;88.39;100985.72;5037727;27;99211;-31
2022/11/06 10:18:34;;;;;;;2.95;0.95;;;;;;;11.60;88.20;100972.81;5052881;27;96784;-31
2022/11/06 10:21:20;;;;;;;0.65;0.43;;;;;;;11.64;88.25;100966.22;5053799;27;96836;-30
2022/11/06 10:23:51;;;;;;;3.10;0.45;;;;;;;11.68;87.66;100978.63;5036283;28;100889;-30
2022/11/06 10:26:18;;;;;;;1.02;0.60;;;;;;;11.71;87.33;100979.41;5037739;28;97842;-31
2022/11/06 10:29:13;;;;;;;1.13;0.52;;;;;;;11.76;87.19;100971.84;5037797;27;96489;-31
2022/11/06 10:31:57;;;;;;;2.40;0.90;;;;;;;11.78;87.12;100973.47;5037980;28;96705;-31
2022/11/06 10:34:34;;;;;;;1.27;0.70;;;;;;;11.76;87.36;100956.41;5038182;28;97429;-31
2022/11/06 10:37:12;;;;;;;0.98;0.43;;;;;;;11.79;87.86;100961.63;5053507;27;100949;-31
2022/11/06 10:39:38;;;;;;;3.22;0.75;;;;;;;11.82;88.14;100950.63;5053485;27;96697;-32
2022/11/06 10:42:17;;;;;;;0.93;0.60;;;;;;;11.81;88.32;100948.84;5053553;27;96871;-31
2022/11/06 10:45:15;;;;;;;0.93;0.57;;;;;;;11.81;87.92;100940.72;5052624;27;101244;-31
2022/11/06 10:47:58;;;;;;;1.52;0.60;;;;;;;11.83;88.15;100930.63;5028798;28;98909;-31
2022/11/06 10:50:33;;;;;;;0.60;0.40;;;;;;;11.85;88.00;100936.81;5036428;28;96668;-30
2022/11/06 10:53:13;;;;;;;2.50;0.47;;;;;;;11.83;87.51;100929.75;5036470;28;96695;-32
2022/11/06 10:56:12;;;;;;;2.30;0.65;;;;;;;11.86;87.72;100926.84;5052840;27;101263;-31
2022/11/06 10:58:37;;;;;;;2.03;0.82;;;;;;;11.86;87.24;100924.13;5035675;27;101073;-31
2022/11/06 11:01:04;;;;;;;1.40;0.77;;;;;;;11.86;87.33;100930.41;5037421;28;96710;-31
2022/11/06 11:03:40;;;;;;;1.67;0.45;;;;;;;11.86;87.63;100925.00;5053363;27;96910;-31
2022/11/06 11:06:06;;;;;;;1.42;0.52;;;;;;;11.83;88.42;100925.19;5035940;28;100786;-31
2022/11/06 11:08:43;;;;;;;1.17;0.57;;;;;;;11.82;88.69;100928.91;5036911;28;99112;-30
2022/11/06 11:11:22;;;;;;;4.18;0.90;;;;;;;11.79;89.14;100926.38;5037138;28;96497;-31
2022/11/06 11:14:10;;;;;;;0.90;0.43;;;;;;;11.77;89.30;100920.16;5035896;28;96902;-31
2022/11/06 11:16:43;;;;;;;2.25;0.57;;;;;;;11.70;90.12;100916.09;5036850;28;99512;-30
2022/11/06 11:19:26;;;;;;;2.50;0.80;;;;;;;11.68;90.19;100920.78;5036641;28;97852;-31
2022/11/06 11:22:14;;;;;;;1.73;0.50;;;;;;;11.62;90.88;100916.59;5037060;27;96534;-32
2022/11/06 11:24:56;;;;;;;1.40;0.80;;;;;;;11.58;91.21;100903.34;5027176;27;96811;-31
2022/11/06 11:27:22;;;;;;;1.33;0.57;;;;;;;11.57;91.91;100901.63;5036915;27;98077;-31
2022/11/06 11:29:49;;;;;;;1.17;0.70;;;;;;;11.54;91.81;100907.25;5037326;27;97745;-31
2022/11/06 11:32:17;;;;;;;1.75;0.95;;;;;;;11.46;91.48;100895.06;5052608;27;96489;-31
2022/11/06 11:34:47;;;;;;;2.40;0.80;;;;;;;11.45;91.69;100893.28;5052685;27;96734;-30
2022/11/06 11:37:33;;;;;;;1.52;0.93;;;;;;;11.43;91.28;100887.09;5036182;28;97420;-31
2022/11/06 11:40:34;;;;;;;0.80;0.57;;;;;;;11.38;91.49;100881.09;5036368;27;100605;-31
2022/11/06 11:43:18;;;;;;;4.85;1.40;;;;;;;11.31;91.48;100874.31;5036725;28;96663;-32
2022/11/06 11:46:01;;;;;;;1.48;0.80;;;;;;;11.25;90.98;100855.75;5037012;28;96760;-31
2022/11/06 11:48:26;;;;;;;1.30;0.70;;;;;;;11.24;91.37;100856.72;5036436;28;99314;-31
2022/11/06 11:50:52;;;;;;;0.43;0.28;;;;;;;11.22;91.35;100845.94;5036317;27;99159;-31